首页
METAR-TAF:

METAR-TAF

机场 :

沙托鲁, 法国

纬度: 46-51N, 经度: 001-43E, 海拔: 160米

当前天气观测

该预报发布于23分钟前的21:30 UTC
风速3节,风向西
温度 12°C
湿度 94%
气压 1015 hPa
能见度10公里或以上
1500米以下无云,无积雨云

METAR: LFLX 202130Z AUTO 28003KT CAVOK 12/11 Q1015 BECMG 3000 BR

时间: 23:53 (21:53 UTC)

预报

该预报发布于4小时和53分钟前的17:00 UTC
预报有效从20日的 18点(UTC)到 21日的 24点(UTC)
风速5节,风向西转西北
能见度10公里或以上
散云层高于3000英尺
短暂存在
从 20日的 18点(UTC)到 20日的 20点(UTC)
能見度: 4000
散云层高于3000英尺, 积雨云.
多云层高于4000英尺
小阵雨
成为
从 20日的 21点(UTC)到 20日的 24点(UTC)
风速3节,风向多变
能見度: 3000
散云层高于500英尺
散云层高于4000英尺
轻雾
短暂存在
从 21日的 00点(UTC)到 21日的 07点(UTC)
能見度: 0400
多云层高于200英尺
成为
从 21日的 08点(UTC)到 21日的 11点(UTC)
风速3节,风向北转西北
能见度10公里或以上
散云层高于2500英尺
短暂存在
从 21日的 12点(UTC)到 21日的 18点(UTC)
能見度: 4000
散云层高于3000英尺, 积雨云.
多云层高于3500英尺
阵雨
成为
从 21日的 18点(UTC)到 21日的 21点(UTC)
风速3节,风向多变
能见度10公里或以上
1500米以下无云,无积雨云

TAF: LFLX 201700Z 2018/2124 30005KT 9999 SCT030 TEMPO 2018/2020 4000 -SHRA SCT030CB BKN040 BECMG 2021/2024 VRB03KT 3000 BR SCT005 SCT040 TEMPO 2100/2107 0400 FG BKN002 BECMG 2108/2111 34003KT 9999 SCT025 TEMPO 2112/2118 4000 SHRA SCT030CB BKN035 BECMG 2118/2121 VRB03KT CAVOK

超过4000个机场的气象观测和天气预报(METAR&TAF报告)。

可查询的气象台以黄色和红色小点在地图上表示。

将鼠标移到小点上方,可查看气象台名称。

然后点击查看天气观测和预报。

如需切换地图:点击带黑十字的绿色按钮放大地图;点击带横线的绿色按钮缩小地图;或者点击绿色箭头查看邻近地区的地图。


METAR-TAF: